Time;durP1;ratioP1;P1;durP2;ratioP2;P2;SDS_P1;SDS_P2;PMS_P1;PMS_P2;Temp;Humidity;BMP_temperature;BMP_pressure;BME280_temperature;BME280_humidity;BME280_pressure;Samples;Min_cycle;Max_cycle;Signal;HPM_P1;HPM_P2
2022/09/04 00:01:52;;;;;;;1.30;1.20;;;21.60;99.90;;;;;;4960220;28;20465;-81
2022/09/04 00:04:34;;;;;;;1.73;1.27;;;21.60;99.90;;;;;;4946263;28;20466;-80
2022/09/04 00:07:11;;;;;;;1.87;1.20;;;21.50;99.90;;;;;;4958383;28;20469;-81
2022/09/04 00:09:50;;;;;;;1.57;1.20;;;21.50;99.90;;;;;;4951233;28;20501;-80
2022/09/04 00:12:25;;;;;;;2.23;1.50;;;21.40;99.90;;;;;;4946246;28;20464;-81
2022/09/04 00:15:02;;;;;;;1.70;1.30;;;21.40;99.90;;;;;;4937907;28;20462;-80
2022/09/04 00:17:35;;;;;;;1.63;1.50;;;21.40;99.90;;;;;;4950560;28;21172;-80
2022/09/04 00:20:11;;;;;;;2.40;1.50;;;21.50;99.90;;;;;;4949119;28;20538;-81
2022/09/04 00:22:51;;;;;;;1.33;1.23;;;21.50;99.90;;;;;;4945515;28;20467;-82
2022/09/04 00:25:25;;;;;;;2.20;1.73;;;21.50;99.90;;;;;;4964294;28;21009;-82
2022/09/04 00:28:00;;;;;;;1.30;1.20;;;21.40;99.90;;;;;;4958743;28;20447;-79
2022/09/04 00:30:29;;;;;;;1.53;1.40;;;21.40;99.90;;;;;;4954374;28;20475;-81
2022/09/04 00:33:06;;;;;;;1.70;1.60;;;21.40;99.90;;;;;;4953633;28;20466;-80
2022/09/04 00:35:39;;;;;;;2.17;1.30;;;21.40;99.90;;;;;;4947796;28;20467;-81
2022/09/04 00:38:11;;;;;;;3.23;2.13;;;21.40;99.90;;;;;;4964999;28;20475;-81
2022/09/04 00:40:44;;;;;;;2.00;1.30;;;21.40;99.90;;;;;;4949459;28;20878;-82
2022/09/04 00:43:36;;;;;;;1.60;1.13;;;21.40;99.90;;;;;;4957174;28;20526;-81
2022/09/04 00:46:41;;;;;;;1.43;1.20;;;21.30;99.90;;;;;;4952545;28;20500;-81
2022/09/04 00:49:44;;;;;;;1.30;1.20;;;21.20;99.90;;;;;;4910992;28;20888;-81
2022/09/04 00:52:25;;;;;;;1.80;1.50;;;21.20;99.90;;;;;;4950129;28;20455;-79
2022/09/04 00:55:20;;;;;;;1.40;1.23;;;21.70;99.90;;;;;;4954852;28;20471;-80
2022/09/04 00:58:17;;;;;;;1.70;1.40;;;21.20;99.90;;;;;;4955019;28;21068;-80
2022/09/04 01:00:47;;;;;;;3.50;1.40;;;21.20;99.90;;;;;;4951604;28;20546;-80
2022/09/04 01:03:39;;;;;;;1.67;1.20;;;21.10;99.90;;;;;;4950481;28;20455;-80
2022/09/04 01:06:39;;;;;;;1.43;1.33;;;21.70;99.90;;;;;;4957491;28;20480;-79
2022/09/04 01:09:38;;;;;;;1.40;1.30;;;21.10;99.90;;;;;;4916395;28;20467;-79
2022/09/04 01:12:16;;;;;;;1.50;1.40;;;21.20;99.90;;;;;;4955738;28;20491;-80
2022/09/04 01:14:54;;;;;;;1.30;1.20;;;21.10;99.90;;;;;;4956020;28;20465;-80
2022/09/04 01:17:31;;;;;;;1.30;1.20;;;21.10;99.90;;;;;;4951692;28;20471;-79
2022/09/04 01:20:06;;;;;;;1.77;1.40;;;21.10;99.90;;;;;;4945581;28;20463;-79
2022/09/04 01:22:55;;;;;;;1.50;1.40;;;21.10;99.90;;;;;;4954517;28;20454;-79
2022/09/04 01:25:34;;;;;;;1.50;1.40;;;21.00;99.90;;;;;;4958805;28;20463;-79
2022/09/04 01:28:10;;;;;;;1.53;1.43;;;21.10;99.90;;;;;;4948290;28;20452;-80
2022/09/04 01:30:45;;;;;;;1.20;1.10;;;21.10;99.90;;;;;;4955494;28;20489;-80
2022/09/04 01:33:19;;;;;;;1.83;1.20;;;21.10;99.90;;;;;;4954866;28;20530;-80
2022/09/04 01:35:55;;;;;;;1.57;1.47;;;21.00;99.90;;;;;;4944216;28;20490;-80
2022/09/04 01:38:35;;;;;;;1.30;1.20;;;21.00;99.90;;;;;;4947328;28;20478;-79
2022/09/04 01:41:13;;;;;;;2.93;1.30;;;21.00;99.90;;;;;;4953594;28;21116;-79
2022/09/04 01:43:43;;;;;;;1.40;1.30;;;21.00;99.90;;;;;;4952806;28;20458;-79
2022/09/04 01:46:30;;;;;;;1.57;1.47;;;20.90;99.90;;;;;;4953522;28;20534;-81
2022/09/04 01:49:06;;;;;;;1.60;1.50;;;20.90;99.90;;;;;;4951025;28;20463;-81
2022/09/04 01:51:43;;;;;;;1.50;1.40;;;20.90;99.90;;;;;;4951516;28;20477;-80
2022/09/04 01:54:36;;;;;;;2.20;1.87;;;20.90;99.90;;;;;;4946450;28;20872;-81
2022/09/04 01:57:15;;;;;;;1.80;1.50;;;20.90;99.90;;;;;;4959179;28;20480;-81
2022/09/04 01:59:57;;;;;;;2.07;1.97;;;20.80;99.90;;;;;;4953934;28;20482;-81
2022/09/04 02:02:32;;;;;;;1.70;1.50;;;20.80;99.90;;;;;;4950910;28;20463;-80
2022/09/04 02:05:11;;;;;;;1.40;1.30;;;20.80;99.90;;;;;;4950739;28;20459;-81
2022/09/04 02:07:45;;;;;;;2.33;1.40;;;20.70;99.90;;;;;;4955969;28;20477;-79
2022/09/04 02:10:26;;;;;;;2.83;1.43;;;20.70;99.90;;;;;;4962137;28;20470;-80
2022/09/04 02:13:07;;;;;;;1.50;1.37;;;20.70;99.90;;;;;;4953049;28;20848;-81
2022/09/04 02:15:43;;;;;;;1.37;1.27;;;20.70;99.90;;;;;;4955022;28;20529;-79
2022/09/04 02:18:21;;;;;;;1.87;1.63;;;20.70;99.90;;;;;;4953307;28;20546;-79
2022/09/04 02:20:58;;;;;;;1.37;1.27;;;20.70;99.90;;;;;;4952666;28;20971;-79
2022/09/04 02:23:35;;;;;;;2.23;1.70;;;20.70;99.90;;;;;;4943154;28;20702;-79
2022/09/04 02:26:12;;;;;;;2.27;1.60;;;20.60;99.90;;;;;;4950840;28;20544;-79
2022/09/04 02:28:51;;;;;;;4.03;1.60;;;20.60;99.90;;;;;;4959115;28;20466;-79
2022/09/04 02:31:30;;;;;;;1.60;1.50;;;20.60;99.90;;;;;;4946831;28;20451;-81
2022/09/04 02:34:06;;;;;;;1.40;1.30;;;20.60;99.90;;;;;;4950289;28;20446;-80
2022/09/04 02:36:42;;;;;;;2.13;1.53;;;20.60;99.90;;;;;;4941706;28;20514;-80
2022/09/04 02:39:26;;;;;;;1.30;1.20;;;20.60;99.90;;;;;;4954415;28;20519;-80
2022/09/04 02:42:04;;;;;;;1.23;1.13;;;20.50;99.90;;;;;;4949127;28;20482;-79
2022/09/04 02:44:46;;;;;;;1.60;1.50;;;20.60;99.90;;;;;;4948497;28;20849;-80
2022/09/04 02:47:27;;;;;;;2.00;1.60;;;20.50;99.90;;;;;;4951724;28;20514;-79
2022/09/04 02:50:03;;;;;;;2.47;1.40;;;20.50;99.90;;;;;;4954200;28;20466;-79
2022/09/04 02:52:58;;;;;;;2.53;1.67;;;20.50;99.90;;;;;;4942994;28;20465;-79
2022/09/04 02:55:44;;;;;;;3.23;1.60;;;20.50;99.90;;;;;;4948241;28;20450;-79
2022/09/04 02:58:24;;;;;;;1.50;1.40;;;20.50;99.90;;;;;;4947577;28;20465;-79
2022/09/04 03:01:02;;;;;;;1.83;1.40;;;20.40;99.90;;;;;;4946097;28;21033;-80
2022/09/04 03:03:40;;;;;;;1.50;1.40;;;20.40;99.90;;;;;;4946892;28;20463;-79
2022/09/04 03:06:12;;;;;;;1.50;1.40;;;20.40;99.90;;;;;;4951578;28;20547;-79
2022/09/04 03:08:46;;;;;;;2.00;1.33;;;20.40;99.90;;;;;;4953674;28;20474;-79
2022/09/04 03:11:21;;;;;;;1.90;1.80;;;20.40;99.90;;;;;;4947590;28;20473;-78
2022/09/04 03:13:56;;;;;;;1.50;1.40;;;20.40;99.90;;;;;;4947829;28;20542;-79
2022/09/04 03:16:29;;;;;;;1.50;1.40;;;20.40;99.90;;;;;;4949186;28;20470;-78
2022/09/04 03:19:13;;;;;;;1.63;1.40;;;20.40;99.90;;;;;;4945958;28;20484;-79
2022/09/04 03:21:51;;;;;;;2.07;1.50;;;20.40;99.90;;;;;;4947948;28;20461;-79
2022/09/04 03:24:26;;;;;;;3.13;1.50;;;20.40;99.90;;;;;;4955089;28;20544;-79
2022/09/04 03:26:56;;;;;;;1.50;1.20;;;20.30;99.90;;;;;;4943117;28;20572;-80
2022/09/04 03:29:35;;;;;;;1.50;1.40;;;20.30;99.90;;;;;;4952801;28;20463;-80
2022/09/04 03:32:13;;;;;;;1.53;1.33;;;20.30;99.90;;;;;;4946038;28;20467;-80
2022/09/04 03:34:51;;;;;;;1.50;1.40;;;20.20;99.90;;;;;;4956086;28;20466;-80
2022/09/04 03:37:32;;;;;;;2.03;1.30;;;20.30;99.90;;;;;;4939954;28;20498;-79
2022/09/04 03:40:11;;;;;;;1.60;1.50;;;20.20;99.90;;;;;;4949757;28;20479;-80
2022/09/04 03:42:55;;;;;;;1.23;1.13;;;20.30;99.90;;;;;;4956211;28;20452;-80
2022/09/04 03:45:37;;;;;;;1.43;1.33;;;20.30;99.90;;;;;;4952678;28;20509;-80
2022/09/04 03:48:17;;;;;;;1.60;1.50;;;20.20;99.90;;;;;;4948074;28;21150;-80
2022/09/04 03:50:55;;;;;;;1.90;1.37;;;20.20;99.90;;;;;;4950642;28;20454;-80
2022/09/04 03:53:32;;;;;;;1.60;1.50;;;20.20;99.90;;;;;;4953331;28;20588;-81
2022/09/04 03:56:18;;;;;;;2.33;1.40;;;20.20;99.90;;;;;;4950643;28;20486;-80
2022/09/04 03:58:56;;;;;;;1.47;1.37;;;20.20;99.90;;;;;;4945707;28;20459;-79
2022/09/04 04:01:33;;;;;;;1.40;1.30;;;20.10;99.90;;;;;;4945184;28;20532;-80
2022/09/04 04:04:36;;;;;;;1.70;1.60;;;20.10;99.90;;;;;;4953198;28;20446;-79
2022/09/04 04:07:16;;;;;;;1.50;1.40;;;20.20;99.90;;;;;;4956663;28;20566;-79
2022/09/04 04:10:00;;;;;;;1.60;1.50;;;20.20;99.90;;;;;;4956435;28;20938;-79
2022/09/04 04:12:50;;;;;;;1.33;1.23;;;20.20;99.90;;;;;;4957898;28;20868;-80
2022/09/04 04:15:30;;;;;;;1.87;1.40;;;20.10;99.90;;;;;;4948405;28;20466;-79
2022/09/04 04:18:16;;;;;;;1.80;1.70;;;20.10;99.90;;;;;;4956312;28;20501;-79
2022/09/04 04:20:54;;;;;;;1.63;1.53;;;20.10;99.90;;;;;;4952294;29;20579;-80
2022/09/04 04:23:56;;;;;;;1.70;1.40;;;20.00;99.90;;;;;;4948115;28;20858;-79
2022/09/04 04:26:39;;;;;;;1.27;1.17;;;20.00;99.90;;;;;;4938098;28;20531;-74
2022/09/04 04:29:35;;;;;;;1.43;1.33;;;19.80;99.90;;;;;;4944563;28;20459;-73
2022/09/04 04:32:20;;;;;;;1.50;1.40;;;19.70;99.90;;;;;;4953138;28;20459;-73
2022/09/04 04:35:02;;;;;;;1.40;1.30;;;19.60;99.90;;;;;;4951734;28;20847;-78
2022/09/04 04:37:43;;;;;;;1.33;1.23;;;19.50;99.90;;;;;;4950429;28;20504;-78
2022/09/04 04:40:21;;;;;;;1.57;1.47;;;19.60;99.90;;;;;;4951011;28;21023;-79
2022/09/04 04:42:56;;;;;;;1.53;1.43;;;19.60;99.90;;;;;;4955513;28;20457;-79
2022/09/04 04:48:53;;;;;;;1.80;1.30;;;19.70;99.90;;;;;;4961167;28;20480;-80
2022/09/04 04:52:07;;;;;;;1.97;1.87;;;19.70;99.90;;;;;;4951604;28;20538;-80
2022/09/04 04:54:52;;;;;;;1.57;1.30;;;19.80;99.90;;;;;;4924603;28;20584;-79
2022/09/04 04:57:30;;;;;;;1.70;1.60;;;19.80;99.90;;;;;;4965257;28;20576;-80
2022/09/04 05:00:07;;;;;;;1.70;1.60;;;19.70;99.90;;;;;;4944404;29;20483;-79
2022/09/04 05:02:50;;;;;;;1.50;1.40;;;19.70;99.90;;;;;;4954596;28;20538;-80
2022/09/04 05:05:25;;;;;;;1.60;1.50;;;19.70;99.90;;;;;;4950013;29;20479;-80
2022/09/04 05:08:02;;;;;;;1.53;1.43;;;19.70;99.90;;;;;;4942233;28;20542;-79
2022/09/04 05:10:40;;;;;;;2.40;1.60;;;19.80;99.90;;;;;;4939858;28;20457;-80
2022/09/04 05:13:18;;;;;;;2.87;1.40;;;19.80;99.90;;;;;;4943491;28;20496;-79
2022/09/04 05:15:53;;;;;;;1.57;1.47;;;19.80;99.90;;;;;;4953876;28;20466;-79
2022/09/04 05:18:45;;;;;;;2.03;1.67;;;19.80;99.90;;;;;;4945111;29;20821;-80
2022/09/04 05:21:19;;;;;;;2.13;1.67;;;19.80;99.90;;;;;;4939651;28;20505;-80
2022/09/04 05:23:59;;;;;;;2.60;1.40;;;19.80;99.90;;;;;;4951869;28;20464;-79
2022/09/04 05:26:34;;;;;;;1.73;1.40;;;19.70;99.90;;;;;;4952891;28;20502;-80
2022/09/04 05:29:11;;;;;;;2.23;1.77;;;19.70;99.90;;;;;;4953256;28;20460;-79
2022/09/04 05:31:49;;;;;;;2.17;1.77;;;19.80;99.90;;;;;;4953999;29;20943;-79
2022/09/04 05:34:28;;;;;;;1.90;1.80;;;19.80;99.90;;;;;;4968592;28;20831;-80
2022/09/04 05:37:07;;;;;;;1.40;1.30;;;19.80;99.90;;;;;;4966032;28;20478;-79
2022/09/04 05:39:48;;;;;;;1.87;1.43;;;19.80;99.90;;;;;;4965219;28;20463;-80
2022/09/04 05:42:41;;;;;;;1.83;1.73;;;19.80;99.90;;;;;;4953954;28;20463;-79
2022/09/04 05:45:20;;;;;;;1.83;1.73;;;19.80;99.90;;;;;;4948360;28;20463;-79
2022/09/04 05:48:10;;;;;;;2.00;1.80;;;19.80;99.90;;;;;;4949214;28;20468;-80
2022/09/04 05:51:06;;;;;;;1.60;1.50;;;19.90;99.90;;;;;;4938675;28;20464;-80
2022/09/04 05:53:56;;;;;;;2.03;1.70;;;19.90;99.90;;;;;;4950548;28;20524;-78
2022/09/04 05:56:51;;;;;;;1.67;1.30;;;20.00;99.90;;;;;;4959631;28;20470;-80
2022/09/04 05:59:41;;;;;;;2.23;2.03;;;20.00;99.90;;;;;;4956522;28;20444;-79
2022/09/04 06:02:40;;;;;;;2.20;2.00;;;20.00;99.90;;;;;;4942649;29;20866;-79
2022/09/04 06:05:21;;;;;;;2.73;2.53;;;20.00;99.90;;;;;;4951569;28;20451;-80
2022/09/04 06:07:57;;;;;;;2.20;2.00;;;20.00;99.90;;;;;;4940967;28;20473;-80
2022/09/04 06:10:35;;;;;;;2.60;2.40;;;20.00;99.90;;;;;;4961435;28;20966;-81
2022/09/04 06:13:44;;;;;;;1.90;1.80;;;20.10;99.90;;;;;;4955714;28;20940;-81
2022/09/04 06:16:27;;;;;;;2.60;2.40;;;20.20;99.90;;;;;;4947093;28;20482;-80
2022/09/04 06:19:16;;;;;;;2.53;2.33;;;20.20;99.90;;;;;;4947081;28;20858;-80
2022/09/04 06:22:09;;;;;;;2.70;2.50;;;20.30;1.00;;;;;;4950042;28;20503;-80
2022/09/04 06:25:04;;;;;;;2.30;2.10;;;20.40;1.00;;;;;;4946974;28;20831;-80
2022/09/04 06:27:54;;;;;;;2.10;1.90;;;20.50;1.00;;;;;;4957539;28;20554;-80
2022/09/04 06:30:24;;;;;;;2.27;2.07;;;20.60;99.90;;;;;;4952718;28;20444;-80
2022/09/04 06:33:12;;;;;;;2.23;2.03;;;20.70;99.90;;;;;;4945751;29;20452;-80
2022/09/04 06:36:03;;;;;;;1.83;1.67;;;20.70;99.90;;;;;;4952689;28;20448;-80
2022/09/04 06:38:45;;;;;;;2.00;1.87;;;20.80;99.90;;;;;;4945623;28;20468;-80
2022/09/04 06:41:30;;;;;;;2.20;2.00;;;20.80;99.90;;;;;;4952574;28;20480;-80
2022/09/04 06:44:07;;;;;;;1.93;1.73;;;20.80;99.90;;;;;;4948908;29;20531;-79
2022/09/04 06:46:42;;;;;;;2.93;1.70;;;20.90;99.90;;;;;;4950314;28;20523;-80
2022/09/04 06:49:17;;;;;;;2.43;2.23;;;20.90;99.90;;;;;;4951449;28;20463;-79
2022/09/04 06:52:06;;;;;;;2.70;1.77;;;20.90;99.90;;;;;;4949089;28;20547;-79
2022/09/04 06:54:47;;;;;;;2.80;2.00;;;21.00;99.90;;;;;;4941986;28;21120;-79
2022/09/04 06:57:31;;;;;;;1.77;1.50;;;21.00;99.90;;;;;;4948893;28;20472;-79
2022/09/04 07:00:05;;;;;;;2.23;1.70;;;21.00;99.90;;;;;;4959936;28;20455;-78
2022/09/04 07:02:53;;;;;;;1.70;1.60;;;21.10;99.90;;;;;;4950039;28;20925;-79
2022/09/04 07:05:27;;;;;;;2.30;1.50;;;21.10;99.90;;;;;;4945706;29;20463;-79
2022/09/04 07:08:08;;;;;;;2.20;2.00;;;21.10;99.90;;;;;;4941481;29;20471;-80
2022/09/04 07:10:43;;;;;;;2.13;1.83;;;21.10;99.90;;;;;;4951190;29;20455;-79
2022/09/04 07:13:38;;;;;;;2.13;1.77;;;21.10;99.90;;;;;;4953570;28;20455;-79
2022/09/04 07:16:25;;;;;;;1.70;1.60;;;21.20;99.90;;;;;;4947592;28;20472;-79
2022/09/04 07:19:28;;;;;;;1.60;1.50;;;21.10;99.90;;;;;;4941205;28;21033;-79
2022/09/04 07:22:12;;;;;;;1.80;1.60;;;21.20;1.00;;;;;;4945688;28;20468;-80
2022/09/04 07:24:55;;;;;;;1.50;1.40;;;21.20;1.00;;;;;;4950772;28;20525;-81
2022/09/04 07:27:36;;;;;;;1.60;1.50;;;21.20;1.00;;;;;;4957138;28;20479;-81
2022/09/04 07:30:07;;;;;;;1.60;1.50;;;21.30;1.00;;;;;;4943551;28;20526;-78
2022/09/04 07:32:40;;;;;;;1.73;1.53;;;21.40;99.90;;;;;;4958265;28;20466;-80
2022/09/04 07:35:15;;;;;;;1.90;1.80;;;21.40;99.90;;;;;;4942551;29;20453;-80
2022/09/04 07:37:50;;;;;;;1.90;1.80;;;21.50;99.90;;;;;;4933478;28;20570;-79
2022/09/04 07:40:23;;;;;;;1.60;1.50;;;21.50;99.90;;;;;;4948377;29;21184;-80
2022/09/04 07:43:04;;;;;;;1.97;1.87;;;21.60;99.90;;;;;;4951745;28;20501;-79
2022/09/04 07:45:36;;;;;;;1.40;1.30;;;21.60;99.90;;;;;;4951072;28;21026;-80
2022/09/04 07:48:17;;;;;;;1.60;1.50;;;21.70;99.90;;;;;;4951273;28;20454;-79
2022/09/04 07:51:02;;;;;;;1.37;1.27;;;21.80;99.90;;;;;;4939014;29;21008;-80
2022/09/04 07:54:06;;;;;;;1.40;1.30;;;21.80;99.90;;;;;;4952644;28;20562;-79
2022/09/04 07:56:52;;;;;;;1.50;1.40;;;21.90;99.90;;;;;;4922918;28;20964;-80
2022/09/04 07:59:39;;;;;;;1.40;1.30;;;22.00;99.90;;;;;;4957156;28;20539;-80
2022/09/04 08:02:26;;;;;;;1.50;1.40;;;22.10;99.90;;;;;;4942716;28;20474;-80
2022/09/04 08:05:18;;;;;;;3.50;1.53;;;22.20;99.90;;;;;;4947158;28;20461;-79
2022/09/04 08:08:15;;;;;;;1.40;1.30;;;22.20;99.90;;;;;;4937075;28;20548;-80
2022/09/04 08:11:01;;;;;;;1.67;1.20;;;22.30;99.90;;;;;;4885184;29;20451;-79
2022/09/04 08:13:54;;;;;;;1.93;1.60;;;22.40;99.90;;;;;;4946133;28;20490;-79
2022/09/04 08:16:30;;;;;;;1.57;1.20;;;22.50;99.90;;;;;;4917701;28;20512;-80
2022/09/04 08:19:19;;;;;;;2.53;1.37;;;22.60;99.90;;;;;;4959049;28;20460;-79
2022/09/04 08:21:49;;;;;;;1.03;1.00;;;22.60;99.90;;;;;;4930498;29;20504;-80
2022/09/04 08:24:44;;;;;;;2.70;0.97;;;22.70;99.90;;;;;;4948450;28;20453;-79
2022/09/04 08:27:28;;;;;;;1.30;1.20;;;22.80;99.90;;;;;;4945041;28;20891;-79
2022/09/04 08:30:06;;;;;;;1.10;1.00;;;22.80;99.90;;;;;;4967402;28;20477;-79
2022/09/04 08:33:04;;;;;;;1.87;1.03;;;22.90;99.90;;;;;;4944352;28;20533;-79
2022/09/04 08:35:34;;;;;;;1.07;1.00;;;22.90;99.90;;;;;;4950878;28;20446;-80
2022/09/04 08:38:18;;;;;;;1.00;1.00;;;22.90;99.90;;;;;;4931991;28;20460;-79
2022/09/04 08:41:15;;;;;;;1.47;1.00;;;23.00;99.90;;;;;;4956485;28;20977;-79
2022/09/04 08:44:20;;;;;;;1.20;1.10;;;23.00;99.90;;;;;;4951096;28;20484;-79
2022/09/04 08:47:12;;;;;;;1.00;1.00;;;23.10;99.90;;;;;;4953383;28;20470;-79
2022/09/04 08:50:08;;;;;;;1.77;1.00;;;23.20;99.90;;;;;;4960414;28;20450;-79
2022/09/04 08:53:06;;;;;;;1.10;1.00;;;23.20;99.90;;;;;;4952084;28;20461;-79
2022/09/04 08:55:54;;;;;;;0.90;0.90;;;23.30;99.90;;;;;;4947014;28;20451;-80
2022/09/04 08:58:50;;;;;;;0.83;0.80;;;23.30;99.90;;;;;;4960971;28;20459;-80
2022/09/04 09:02:02;;;;;;;1.03;0.93;;;23.40;99.90;;;;;;4954009;29;20459;-80
2022/09/04 09:04:58;;;;;;;1.63;0.93;;;23.50;99.90;;;;;;4947103;28;20463;-80
2022/09/04 09:08:27;;;;;;;0.87;0.70;;;23.50;99.90;;;;;;4960476;28;20459;-80
2022/09/04 09:11:31;;;;;;;1.03;1.00;;;23.50;99.90;;;;;;4943918;28;20553;-79
2022/09/04 09:14:45;;;;;;;0.83;0.80;;;23.60;99.90;;;;;;4955113;28;20459;-80
2022/09/04 09:17:23;;;;;;;1.30;1.20;;;23.70;99.90;;;;;;4963239;28;20479;-81
2022/09/04 09:20:20;;;;;;;1.50;0.90;;;23.70;99.90;;;;;;4947941;29;20464;-80
2022/09/04 09:23:15;;;;;;;2.10;1.13;;;23.70;99.90;;;;;;4958458;28;20469;-80
2022/09/04 09:26:08;;;;;;;1.20;1.10;;;23.80;99.90;;;;;;4952112;28;20630;-81
2022/09/04 09:29:07;;;;;;;1.00;1.00;;;23.80;99.90;;;;;;4960350;28;20462;-80
2022/09/04 09:32:10;;;;;;;1.63;1.00;;;23.90;99.90;;;;;;4955171;29;20819;-79
2022/09/04 09:35:24;;;;;;;1.10;1.00;;;24.00;99.90;;;;;;4954057;28;20452;-79
2022/09/04 09:38:37;;;;;;;0.87;0.87;;;24.00;99.90;;;;;;4952070;29;20978;-81
2022/09/04 09:41:41;;;;;;;0.90;0.90;;;24.00;99.90;;;;;;4959236;28;20451;-81
2022/09/04 09:44:59;;;;;;;1.13;1.03;;;24.10;99.90;;;;;;4956604;28;20474;-79
2022/09/04 09:47:51;;;;;;;0.80;0.80;;;24.10;99.90;;;;;;4954354;28;20513;-81
2022/09/04 09:51:02;;;;;;;1.23;1.13;;;24.10;99.90;;;;;;4935453;29;20455;-80
2022/09/04 09:54:08;;;;;;;0.90;0.90;;;24.10;99.90;;;;;;4950115;28;20507;-79
2022/09/04 09:57:12;;;;;;;0.90;0.90;;;24.10;99.90;;;;;;4955795;28;20479;-80
2022/09/04 10:00:10;;;;;;;0.80;0.80;;;24.20;99.90;;;;;;4950856;28;20466;-81
2022/09/04 10:03:26;;;;;;;1.10;1.00;;;24.50;99.90;;;;;;4959022;28;20475;-80
2022/09/04 10:06:20;;;;;;;0.80;0.80;;;24.40;99.90;;;;;;4945672;28;20479;-80
2022/09/04 10:09:37;;;;;;;0.97;0.90;;;24.40;99.90;;;;;;4953314;28;20464;-81
2022/09/04 10:12:45;;;;;;;1.67;1.00;;;24.40;99.90;;;;;;4955850;28;20466;-80
2022/09/04 10:15:47;;;;;;;0.80;0.80;;;24.50;99.90;;;;;;4946971;28;20535;-80
2022/09/04 10:18:40;;;;;;;0.90;0.90;;;24.60;99.90;;;;;;4932753;28;20500;-79
2022/09/04 10:22:04;;;;;;;1.07;0.80;;;24.70;99.90;;;;;;4956807;28;20440;-80
2022/09/04 10:25:14;;;;;;;0.97;0.97;;;24.70;99.90;;;;;;4929308;28;20474;-81
2022/09/04 10:28:15;;;;;;;0.80;0.80;;;24.80;99.90;;;;;;4946650;28;20459;-80
2022/09/04 10:31:03;;;;;;;0.90;0.90;;;24.70;99.90;;;;;;4946934;28;20452;-80
2022/09/04 10:33:48;;;;;;;1.53;1.00;;;24.70;99.90;;;;;;4933974;29;20568;-80
2022/09/04 10:36:28;;;;;;;1.20;1.10;;;24.80;99.90;;;;;;4940159;29;21063;-79
2022/09/04 10:42:18;;;;;;;0.97;0.90;;;24.80;99.90;;;;;;4944780;28;20450;-80
2022/09/04 10:45:21;;;;;;;0.90;0.90;;;24.80;99.90;;;;;;4961331;28;20468;-79
2022/09/04 10:48:29;;;;;;;0.93;0.83;;;24.80;99.90;;;;;;4935408;28;20519;-79
2022/09/04 10:51:33;;;;;;;1.03;0.93;;;24.80;99.90;;;;;;4953358;28;20490;-79
2022/09/04 10:54:31;;;;;;;0.90;0.90;;;24.80;99.90;;;;;;4953579;28;20455;-79
2022/09/04 10:57:14;;;;;;;1.20;0.90;;;24.80;99.90;;;;;;4946406;28;20472;-77
2022/09/04 10:59:58;;;;;;;0.80;0.80;;;24.90;99.90;;;;;;4961860;28;20468;-80
2022/09/04 11:03:18;;;;;;;1.10;1.00;;;24.90;99.90;;;;;;4956210;28;20475;-80
2022/09/04 11:06:07;;;;;;;2.00;1.20;;;24.90;99.90;;;;;;4865431;29;20491;-79
2022/09/04 11:09:06;;;;;;;0.90;0.90;;;24.90;99.90;;;;;;4877396;29;20466;-81
2022/09/04 11:12:06;;;;;;;1.20;1.10;;;24.90;99.90;;;;;;4933271;28;20972;-80
2022/09/04 11:15:04;;;;;;;1.13;1.03;;;24.90;99.90;;;;;;4930123;28;20519;-81
2022/09/04 11:18:04;;;;;;;1.63;0.90;;;24.90;99.90;;;;;;4947885;28;20479;-80
2022/09/04 11:20:57;;;;;;;0.70;0.70;;;24.90;99.90;;;;;;4949629;29;21055;-80
2022/09/04 11:23:58;;;;;;;0.90;0.90;;;24.90;99.90;;;;;;4946395;28;21075;-80
2022/09/04 11:26:56;;;;;;;1.20;1.10;;;25.00;99.90;;;;;;4949299;28;20594;-79
2022/09/04 11:29:40;;;;;;;1.00;1.00;;;24.90;99.90;;;;;;4948731;28;20825;-80
2022/09/04 11:32:30;;;;;;;1.10;1.10;;;25.00;99.90;;;;;;4933328;29;20873;-81
2022/09/04 11:35:36;;;;;;;0.90;0.90;;;25.00;99.90;;;;;;4959990;28;20479;-78
2022/09/04 11:38:19;;;;;;;1.70;0.97;;;25.00;99.90;;;;;;4937848;28;21091;-80
2022/09/04 11:41:42;;;;;;;0.80;0.80;;;24.90;99.90;;;;;;4950325;28;20975;-81
2022/09/04 11:44:38;;;;;;;0.97;0.90;;;24.90;99.90;;;;;;4938249;29;21101;-80
2022/09/04 11:47:44;;;;;;;1.40;0.83;;;24.90;99.90;;;;;;4919775;29;20492;-79
2022/09/04 11:50:23;;;;;;;0.80;0.80;;;25.00;99.90;;;;;;4932869;29;20452;-79
2022/09/04 11:53:26;;;;;;;1.00;0.87;;;25.00;99.90;;;;;;4943913;28;20968;-79
2022/09/04 11:56:30;;;;;;;0.90;0.90;;;25.00;99.90;;;;;;4942227;28;20499;-81
2022/09/04 11:59:19;;;;;;;0.93;0.93;;;25.00;99.90;;;;;;4944674;28;20464;-80
2022/09/04 12:02:14;;;;;;;0.90;0.90;;;25.00;99.90;;;;;;4962507;28;21051;-80
2022/09/04 12:05:02;;;;;;;0.83;0.83;;;25.10;99.90;;;;;;4946084;29;20519;-81
2022/09/04 12:07:44;;;;;;;0.77;0.77;;;25.20;99.90;;;;;;4951556;28;20476;-81
2022/09/04 12:10:51;;;;;;;0.90;0.90;;;25.20;99.90;;;;;;4945588;29;20456;-80
2022/09/04 12:13:51;;;;;;;0.90;0.90;;;25.30;99.90;;;;;;4956233;28;20483;-79
2022/09/04 12:16:46;;;;;;;1.10;1.00;;;25.40;99.90;;;;;;4950780;28;20505;-79
2022/09/04 12:19:55;;;;;;;1.10;1.00;;;25.40;99.90;;;;;;4947416;29;20495;-78
2022/09/04 12:23:02;;;;;;;1.00;1.00;;;25.40;99.90;;;;;;4932141;28;20987;-78
2022/09/04 12:26:16;;;;;;;1.00;0.90;;;25.40;99.90;;;;;;4942000;28;20495;-79
2022/09/04 12:29:16;;;;;;;0.80;0.80;;;25.40;99.90;;;;;;4953451;28;20809;-79
2022/09/04 12:32:18;;;;;;;1.10;0.93;;;25.40;99.90;;;;;;4951340;28;20460;-79
2022/09/04 12:35:33;;;;;;;1.33;1.23;;;25.50;99.90;;;;;;4942637;28;20452;-79
2022/09/04 12:38:42;;;;;;;0.90;0.90;;;25.50;99.90;;;;;;4887416;28;20470;-78
2022/09/04 12:41:18;;;;;;;1.77;1.20;;;25.70;99.90;;;;;;4911117;28;20472;-79
2022/09/04 12:44:02;;;;;;;1.30;1.20;;;25.80;99.90;;;;;;4947996;29;21042;-79
2022/09/04 12:46:56;;;;;;;1.07;0.93;;;25.90;99.90;;;;;;4957468;28;20557;-79
2022/09/04 12:49:50;;;;;;;1.00;1.00;;;26.00;99.90;;;;;;4956679;28;20621;-80
2022/09/04 12:52:31;;;;;;;1.17;1.07;;;26.00;99.90;;;;;;4953854;28;20690;-78
2022/09/04 12:55:08;;;;;;;1.03;0.90;;;26.00;99.90;;;;;;4945616;28;21059;-77
2022/09/04 12:57:48;;;;;;;1.13;1.03;;;25.90;99.90;;;;;;4954950;28;20505;-79
2022/09/04 13:00:17;;;;;;;1.30;1.20;;;25.90;99.90;;;;;;4937275;29;20476;-79
2022/09/04 13:03:00;;;;;;;0.87;0.87;;;25.90;99.90;;;;;;4946773;29;20455;-79
2022/09/04 13:05:46;;;;;;;0.90;0.90;;;25.90;99.90;;;;;;4937283;28;20488;-78
2022/09/04 13:08:30;;;;;;;1.00;0.90;;;25.90;99.90;;;;;;4940506;28;20468;-79
2022/09/04 13:11:06;;;;;;;1.00;1.00;;;25.90;99.90;;;;;;4956737;28;20458;-79
2022/09/04 13:13:47;;;;;;;0.83;0.83;;;25.90;99.90;;;;;;4943450;29;20459;-79
2022/09/04 13:16:21;;;;;;;2.10;1.03;;;25.90;99.90;;;;;;4958506;28;20498;-79
2022/09/04 13:19:01;;;;;;;1.50;1.30;;;25.90;99.90;;;;;;4951932;28;20688;-79
2022/09/04 13:21:50;;;;;;;1.13;1.03;;;26.00;99.90;;;;;;4960251;28;20462;-78
2022/09/04 13:24:30;;;;;;;1.57;1.10;;;25.90;99.90;;;;;;4960507;28;20529;-79
2022/09/04 13:27:14;;;;;;;0.90;0.83;;;25.90;99.90;;;;;;4943109;28;20490;-79
2022/09/04 13:30:00;;;;;;;0.90;0.90;;;26.00;99.90;;;;;;4950934;29;20474;-79
2022/09/04 13:32:50;;;;;;;0.90;0.90;;;26.00;99.90;;;;;;4954492;28;20468;-79
2022/09/04 13:35:33;;;;;;;1.07;0.90;;;26.10;99.90;;;;;;4948274;28;20447;-78
2022/09/04 13:38:24;;;;;;;1.10;1.00;;;26.20;99.90;;;;;;4960764;28;20510;-80
2022/09/04 13:41:23;;;;;;;1.27;0.90;;;26.20;99.90;;;;;;4953895;29;20455;-80
2022/09/04 13:44:23;;;;;;;2.00;1.00;;;26.20;99.90;;;;;;4941367;28;20480;-80
2022/09/04 13:47:01;;;;;;;1.10;1.00;;;26.20;99.90;;;;;;4931293;29;20488;-80
2022/09/04 13:49:32;;;;;;;1.13;1.03;;;26.20;99.90;;;;;;4941701;29;20470;-79
2022/09/04 13:52:05;;;;;;;1.63;0.90;;;26.30;99.90;;;;;;4938794;28;20867;-79
2022/09/04 13:54:38;;;;;;;1.13;1.03;;;26.30;99.90;;;;;;4932188;29;20474;-80
2022/09/04 13:57:11;;;;;;;1.10;1.00;;;26.40;99.90;;;;;;4937184;29;20472;-80
2022/09/04 13:59:41;;;;;;;1.00;1.00;;;26.40;99.90;;;;;;4952998;28;20456;-80
2022/09/04 14:02:14;;;;;;;2.07;1.20;;;26.40;99.90;;;;;;4952733;28;20531;-78
2022/09/04 14:04:45;;;;;;;0.83;0.83;;;26.50;99.90;;;;;;4952718;28;20479;-79
2022/09/04 14:07:23;;;;;;;0.93;0.93;;;26.50;99.90;;;;;;4952128;28;20483;-79
2022/09/04 14:09:54;;;;;;;1.17;0.90;;;26.50;99.90;;;;;;4941683;28;20447;-79
2022/09/04 14:12:35;;;;;;;2.40;1.00;;;26.50;99.90;;;;;;4947983;28;20461;-79
2022/09/04 14:15:39;;;;;;;1.37;1.20;;;26.60;99.90;;;;;;4942692;28;20834;-79
2022/09/04 14:18:27;;;;;;;1.17;1.10;;;26.60;99.90;;;;;;4940781;28;20462;-79
2022/09/04 14:20:57;;;;;;;1.17;1.07;;;26.50;99.90;;;;;;4962277;28;20467;-79
2022/09/04 14:23:43;;;;;;;1.10;0.90;;;26.60;99.90;;;;;;4958480;28;20614;-77
2022/09/04 14:26:24;;;;;;;1.07;1.07;;;26.60;99.90;;;;;;4933653;28;20484;-77
2022/09/04 14:28:59;;;;;;;1.23;1.13;;;26.60;99.90;;;;;;4953215;28;20453;-76
2022/09/04 14:31:34;;;;;;;1.00;1.00;;;26.60;99.90;;;;;;4937886;28;20452;-78
2022/09/04 14:34:16;;;;;;;1.00;1.00;;;26.60;99.90;;;;;;4942001;29;20965;-79